sensor_id;sensor_type;location;lat;lon;timestamp;P1;durP1;ratioP1;P2;durP2;ratioP2
60919;SDS011;59039;52.108;19.942;2023-11-18T00:00:46;44.20;;;20.00;;
60919;SDS011;59039;52.108;19.942;2023-11-18T00:03:12;37.10;;;17.30;;
60919;SDS011;59039;52.108;19.942;2023-11-18T00:05:37;34.90;;;16.60;;
60919;SDS011;59039;52.108;19.942;2023-11-18T00:08:02;35.90;;;17.20;;
60919;SDS011;59039;52.108;19.942;2023-11-18T00:10:27;39.80;;;18.00;;
60919;SDS011;59039;52.108;19.942;2023-11-18T00:12:52;36.70;;;15.80;;
60919;SDS011;59039;52.108;19.942;2023-11-18T00:15:18;34.70;;;15.80;;
60919;SDS011;59039;52.108;19.942;2023-11-18T00:17:43;34.40;;;16.10;;
60919;SDS011;59039;52.108;19.942;2023-11-18T00:20:08;35.10;;;17.00;;
60919;SDS011;59039;52.108;19.942;2023-11-18T00:22:34;37.40;;;17.30;;
60919;SDS011;59039;52.108;19.942;2023-11-18T00:25:00;31.40;;;15.70;;
60919;SDS011;59039;52.108;19.942;2023-11-18T00:27:25;35.40;;;16.70;;
60919;SDS011;59039;52.108;19.942;2023-11-18T00:29:51;34.20;;;15.90;;
60919;SDS011;59039;52.108;19.942;2023-11-18T00:32:16;32.20;;;15.30;;
60919;SDS011;59039;52.108;19.942;2023-11-18T00:34:41;36.50;;;17.40;;
60919;SDS011;59039;52.108;19.942;2023-11-18T00:37:07;37.30;;;16.30;;
60919;SDS011;59039;52.108;19.942;2023-11-18T00:39:32;34.20;;;15.90;;
60919;SDS011;59039;52.108;19.942;2023-11-18T00:41:57;32.40;;;16.50;;
60919;SDS011;59039;52.108;19.942;2023-11-18T00:44:22;32.40;;;16.50;;
60919;SDS011;59039;52.108;19.942;2023-11-18T00:46:47;36.70;;;16.80;;
60919;SDS011;59039;52.108;19.942;2023-11-18T00:49:13;38.40;;;16.70;;
60919;SDS011;59039;52.108;19.942;2023-11-18T00:51:38;37.30;;;16.40;;
60919;SDS011;59039;52.108;19.942;2023-11-18T00:54:03;34.30;;;16.50;;
60919;SDS011;59039;52.108;19.942;2023-11-18T00:56:29;33.50;;;17.10;;
60919;SDS011;59039;52.108;19.942;2023-11-18T00:58:54;34.70;;;16.60;;
60919;SDS011;59039;52.108;19.942;2023-11-18T01:01:20;39.00;;;17.60;;
60919;SDS011;59039;52.108;19.942;2023-11-18T01:03:45;38.10;;;16.90;;
60919;SDS011;59039;52.108;19.942;2023-11-18T01:06:10;39.40;;;17.40;;
60919;SDS011;59039;52.108;19.942;2023-11-18T01:08:35;43.90;;;18.40;;
60919;SDS011;59039;52.108;19.942;2023-11-18T01:11:01;39.00;;;16.70;;
60919;SDS011;59039;52.108;19.942;2023-11-18T01:13:26;41.50;;;18.10;;
60919;SDS011;59039;52.108;19.942;2023-11-18T01:15:51;44.60;;;18.50;;
60919;SDS011;59039;52.108;19.942;2023-11-18T01:18:16;32.20;;;16.70;;
60919;SDS011;59039;52.108;19.942;2023-11-18T01:20:42;34.60;;;17.50;;
60919;SDS011;59039;52.108;19.942;2023-11-18T01:23:07;27.40;;;14.80;;
60919;SDS011;59039;52.108;19.942;2023-11-18T01:25:32;33.30;;;15.70;;
60919;SDS011;59039;52.108;19.942;2023-11-18T01:27:57;32.90;;;15.30;;
60919;SDS011;59039;52.108;19.942;2023-11-18T01:30:22;34.40;;;16.00;;
60919;SDS011;59039;52.108;19.942;2023-11-18T01:32:48;32.50;;;16.60;;
60919;SDS011;59039;52.108;19.942;2023-11-18T01:35:13;34.70;;;16.80;;
60919;SDS011;59039;52.108;19.942;2023-11-18T01:37:38;32.40;;;16.10;;
60919;SDS011;59039;52.108;19.942;2023-11-18T01:40:04;35.30;;;15.90;;
60919;SDS011;59039;52.108;19.942;2023-11-18T01:42:29;35.70;;;17.00;;
60919;SDS011;59039;52.108;19.942;2023-11-18T01:44:55;33.70;;;16.00;;
60919;SDS011;59039;52.108;19.942;2023-11-18T01:47:20;35.30;;;16.90;;
60919;SDS011;59039;52.108;19.942;2023-11-18T01:49:45;30.70;;;15.70;;
60919;SDS011;59039;52.108;19.942;2023-11-18T01:52:10;36.60;;;16.70;;
60919;SDS011;59039;52.108;19.942;2023-11-18T01:54:36;31.20;;;14.40;;
60919;SDS011;59039;52.108;19.942;2023-11-18T01:57:03;34.10;;;15.50;;
60919;SDS011;59039;52.108;19.942;2023-11-18T01:59:28;31.80;;;15.60;;
60919;SDS011;59039;52.108;19.942;2023-11-18T02:01:53;33.60;;;15.00;;
60919;SDS011;59039;52.108;19.942;2023-11-18T02:04:19;28.80;;;14.00;;
60919;SDS011;59039;52.108;19.942;2023-11-18T02:06:45;32.90;;;15.10;;
60919;SDS011;59039;52.108;19.942;2023-11-18T02:09:16;31.60;;;14.20;;
60919;SDS011;59039;52.108;19.942;2023-11-18T02:11:48;26.90;;;13.80;;
60919;SDS011;59039;52.108;19.942;2023-11-18T02:14:19;28.70;;;14.50;;
60919;SDS011;59039;52.108;19.942;2023-11-18T02:16:45;28.20;;;14.20;;
60919;SDS011;59039;52.108;19.942;2023-11-18T02:19:19;29.50;;;13.70;;
60919;SDS011;59039;52.108;19.942;2023-11-18T02:21:45;28.30;;;13.60;;
60919;SDS011;59039;52.108;19.942;2023-11-18T02:24:24;30.50;;;13.80;;
60919;SDS011;59039;52.108;19.942;2023-11-18T02:26:59;30.50;;;14.60;;
60919;SDS011;59039;52.108;19.942;2023-11-18T02:29:25;34.80;;;14.70;;
60919;SDS011;59039;52.108;19.942;2023-11-18T02:31:52;28.70;;;14.20;;
60919;SDS011;59039;52.108;19.942;2023-11-18T02:34:25;31.40;;;14.20;;
60919;SDS011;59039;52.108;19.942;2023-11-18T02:36:55;32.60;;;13.50;;
60919;SDS011;59039;52.108;19.942;2023-11-18T02:39:24;30.20;;;13.80;;
60919;SDS011;59039;52.108;19.942;2023-11-18T02:41:54;25.80;;;12.50;;
60919;SDS011;59039;52.108;19.942;2023-11-18T02:44:21;27.40;;;14.00;;
60919;SDS011;59039;52.108;19.942;2023-11-18T02:46:48;27.90;;;12.90;;
60919;SDS011;59039;52.108;19.942;2023-11-18T02:49:13;27.10;;;13.50;;
60919;SDS011;59039;52.108;19.942;2023-11-18T02:51:38;28.40;;;13.70;;
60919;SDS011;59039;52.108;19.942;2023-11-18T02:54:03;26.90;;;13.60;;
60919;SDS011;59039;52.108;19.942;2023-11-18T02:56:29;25.90;;;12.70;;
60919;SDS011;59039;52.108;19.942;2023-11-18T02:58:54;27.90;;;12.30;;
60919;SDS011;59039;52.108;19.942;2023-11-18T03:01:19;27.00;;;13.10;;
60919;SDS011;59039;52.108;19.942;2023-11-18T03:03:44;22.80;;;11.40;;
60919;SDS011;59039;52.108;19.942;2023-11-18T03:06:10;25.90;;;11.90;;
60919;SDS011;59039;52.108;19.942;2023-11-18T03:08:35;24.70;;;12.40;;
60919;SDS011;59039;52.108;19.942;2023-11-18T03:11:00;24.20;;;11.30;;
60919;SDS011;59039;52.108;19.942;2023-11-18T03:13:25;24.40;;;11.10;;
60919;SDS011;59039;52.108;19.942;2023-11-18T03:15:50;24.80;;;12.00;;
60919;SDS011;59039;52.108;19.942;2023-11-18T03:18:16;22.10;;;11.10;;
60919;SDS011;59039;52.108;19.942;2023-11-18T03:20:41;23.10;;;11.50;;
60919;SDS011;59039;52.108;19.942;2023-11-18T03:23:06;20.10;;;9.70;;
60919;SDS011;59039;52.108;19.942;2023-11-18T03:25:31;21.60;;;11.10;;
60919;SDS011;59039;52.108;19.942;2023-11-18T03:27:56;22.20;;;11.40;;
60919;SDS011;59039;52.108;19.942;2023-11-18T03:30:22;20.50;;;10.30;;
60919;SDS011;59039;52.108;19.942;2023-11-18T03:32:47;22.00;;;10.10;;
60919;SDS011;59039;52.108;19.942;2023-11-18T03:35:12;20.30;;;10.40;;
60919;SDS011;59039;52.108;19.942;2023-11-18T03:37:38;19.40;;;9.80;;
60919;SDS011;59039;52.108;19.942;2023-11-18T03:42:33;20.20;;;10.10;;
60919;SDS011;59039;52.108;19.942;2023-11-18T03:44:58;19.40;;;9.80;;
60919;SDS011;59039;52.108;19.942;2023-11-18T03:47:24;15.80;;;9.90;;
60919;SDS011;59039;52.108;19.942;2023-11-18T03:49:49;20.90;;;10.80;;
60919;SDS011;59039;52.108;19.942;2023-11-18T03:52:15;15.10;;;9.00;;
60919;SDS011;59039;52.108;19.942;2023-11-18T03:54:41;19.20;;;10.80;;
60919;SDS011;59039;52.108;19.942;2023-11-18T03:57:06;20.80;;;10.30;;
60919;SDS011;59039;52.108;19.942;2023-11-18T03:59:31;17.00;;;9.70;;
60919;SDS011;59039;52.108;19.942;2023-11-18T04:01:56;20.50;;;10.70;;
60919;SDS011;59039;52.108;19.942;2023-11-18T04:04:21;18.10;;;9.20;;
60919;SDS011;59039;52.108;19.942;2023-11-18T04:06:47;19.90;;;11.00;;
60919;SDS011;59039;52.108;19.942;2023-11-18T04:09:12;20.80;;;11.40;;
60919;SDS011;59039;52.108;19.942;2023-11-18T04:11:37;17.60;;;9.10;;
60919;SDS011;59039;52.108;19.942;2023-11-18T04:14:02;17.40;;;9.70;;
60919;SDS011;59039;52.108;19.942;2023-11-18T04:16:27;20.30;;;10.40;;
60919;SDS011;59039;52.108;19.942;2023-11-18T04:18:53;21.70;;;12.20;;
60919;SDS011;59039;52.108;19.942;2023-11-18T04:21:18;24.00;;;12.50;;
60919;SDS011;59039;52.108;19.942;2023-11-18T04:23:43;22.90;;;11.50;;
60919;SDS011;59039;52.108;19.942;2023-11-18T04:26:08;21.20;;;10.90;;
60919;SDS011;59039;52.108;19.942;2023-11-18T04:28:34;18.20;;;10.10;;
60919;SDS011;59039;52.108;19.942;2023-11-18T04:31:00;21.20;;;9.70;;
60919;SDS011;59039;52.108;19.942;2023-11-18T04:33:25;16.90;;;8.60;;
60919;SDS011;59039;52.108;19.942;2023-11-18T04:35:51;15.40;;;8.50;;
60919;SDS011;59039;52.108;19.942;2023-11-18T04:38:17;16.60;;;9.50;;
60919;SDS011;59039;52.108;19.942;2023-11-18T04:40:43;15.40;;;8.90;;
60919;SDS011;59039;52.108;19.942;2023-11-18T04:43:09;18.10;;;9.50;;
60919;SDS011;59039;52.108;19.942;2023-11-18T04:45:34;17.00;;;9.20;;
60919;SDS011;59039;52.108;19.942;2023-11-18T04:47:59;14.20;;;8.20;;
60919;SDS011;59039;52.108;19.942;2023-11-18T04:50:24;18.40;;;9.10;;
60919;SDS011;59039;52.108;19.942;2023-11-18T04:52:50;17.40;;;8.30;;
60919;SDS011;59039;52.108;19.942;2023-11-18T04:55:15;15.20;;;8.90;;
60919;SDS011;59039;52.108;19.942;2023-11-18T04:57:40;16.30;;;8.70;;
60919;SDS011;59039;52.108;19.942;2023-11-18T05:00:06;12.30;;;7.60;;
60919;SDS011;59039;52.108;19.942;2023-11-18T05:02:31;12.60;;;7.60;;
60919;SDS011;59039;52.108;19.942;2023-11-18T05:04:57;11.90;;;7.00;;
60919;SDS011;59039;52.108;19.942;2023-11-18T05:07:22;15.20;;;8.60;;
60919;SDS011;59039;52.108;19.942;2023-11-18T05:09:47;12.20;;;7.10;;
60919;SDS011;59039;52.108;19.942;2023-11-18T05:12:12;13.80;;;8.20;;
60919;SDS011;59039;52.108;19.942;2023-11-18T05:14:37;13.50;;;7.50;;
60919;SDS011;59039;52.108;19.942;2023-11-18T05:17:03;11.50;;;7.00;;
60919;SDS011;59039;52.108;19.942;2023-11-18T05:19:28;13.70;;;8.10;;
60919;SDS011;59039;52.108;19.942;2023-11-18T05:21:53;12.40;;;7.40;;
60919;SDS011;59039;52.108;19.942;2023-11-18T05:24:18;13.70;;;8.30;;
60919;SDS011;59039;52.108;19.942;2023-11-18T05:26:43;14.10;;;8.90;;
60919;SDS011;59039;52.108;19.942;2023-11-18T05:29:09;14.00;;;9.00;;
60919;SDS011;59039;52.108;19.942;2023-11-18T05:31:34;14.60;;;8.70;;
60919;SDS011;59039;52.108;19.942;2023-11-18T05:33:59;12.90;;;9.20;;
60919;SDS011;59039;52.108;19.942;2023-11-18T05:36:24;15.70;;;9.40;;
60919;SDS011;59039;52.108;19.942;2023-11-18T05:38:49;13.50;;;9.00;;
60919;SDS011;59039;52.108;19.942;2023-11-18T05:41:15;16.90;;;9.60;;
60919;SDS011;59039;52.108;19.942;2023-11-18T05:43:40;15.20;;;9.50;;
60919;SDS011;59039;52.108;19.942;2023-11-18T05:46:06;16.40;;;10.30;;
60919;SDS011;59039;52.108;19.942;2023-11-18T05:48:31;17.20;;;10.40;;
60919;SDS011;59039;52.108;19.942;2023-11-18T05:50:57;18.10;;;10.30;;
60919;SDS011;59039;52.108;19.942;2023-11-18T05:53:22;20.90;;;10.70;;
60919;SDS011;59039;52.108;19.942;2023-11-18T05:55:47;20.70;;;11.00;;
60919;SDS011;59039;52.108;19.942;2023-11-18T05:58:12;18.60;;;10.40;;
60919;SDS011;59039;52.108;19.942;2023-11-18T06:00:37;17.70;;;9.60;;
60919;SDS011;59039;52.108;19.942;2023-11-18T06:03:03;15.70;;;9.50;;
60919;SDS011;59039;52.108;19.942;2023-11-18T06:05:28;14.60;;;9.00;;
60919;SDS011;59039;52.108;19.942;2023-11-18T06:07:53;15.70;;;9.90;;
60919;SDS011;59039;52.108;19.942;2023-11-18T06:10:18;17.40;;;9.70;;
60919;SDS011;59039;52.108;19.942;2023-11-18T06:12:43;17.50;;;9.20;;
60919;SDS011;59039;52.108;19.942;2023-11-18T06:15:09;16.90;;;8.60;;
60919;SDS011;59039;52.108;19.942;2023-11-18T06:17:34;15.70;;;9.10;;
60919;SDS011;59039;52.108;19.942;2023-11-18T06:19:59;16.70;;;10.00;;
60919;SDS011;59039;52.108;19.942;2023-11-18T06:22:24;19.40;;;11.10;;
60919;SDS011;59039;52.108;19.942;2023-11-18T06:24:50;20.80;;;11.40;;
60919;SDS011;59039;52.108;19.942;2023-11-18T06:27:15;19.40;;;10.40;;
60919;SDS011;59039;52.108;19.942;2023-11-18T06:29:40;17.70;;;10.20;;
60919;SDS011;59039;52.108;19.942;2023-11-18T06:32:05;19.10;;;11.20;;
60919;SDS011;59039;52.108;19.942;2023-11-18T06:34:30;19.70;;;11.00;;
60919;SDS011;59039;52.108;19.942;2023-11-18T06:36:56;18.30;;;9.50;;
60919;SDS011;59039;52.108;19.942;2023-11-18T06:39:21;18.70;;;10.20;;
60919;SDS011;59039;52.108;19.942;2023-11-18T06:41:46;19.50;;;10.70;;
60919;SDS011;59039;52.108;19.942;2023-11-18T06:44:11;19.50;;;10.70;;
60919;SDS011;59039;52.108;19.942;2023-11-18T06:46:36;18.30;;;10.70;;
60919;SDS011;59039;52.108;19.942;2023-11-18T06:49:02;19.40;;;11.20;;
60919;SDS011;59039;52.108;19.942;2023-11-18T06:51:28;22.00;;;11.60;;
60919;SDS011;59039;52.108;19.942;2023-11-18T06:53:55;21.00;;;11.40;;
60919;SDS011;59039;52.108;19.942;2023-11-18T06:56:25;18.50;;;10.30;;
60919;SDS011;59039;52.108;19.942;2023-11-18T06:58:52;18.20;;;10.50;;
60919;SDS011;59039;52.108;19.942;2023-11-18T07:01:18;19.00;;;10.30;;
60919;SDS011;59039;52.108;19.942;2023-11-18T07:03:44;19.70;;;11.00;;
60919;SDS011;59039;52.108;19.942;2023-11-18T07:06:10;19.30;;;10.50;;
60919;SDS011;59039;52.108;19.942;2023-11-18T07:08:36;18.70;;;10.00;;
60919;SDS011;59039;52.108;19.942;2023-11-18T07:11:02;15.80;;;8.90;;
60919;SDS011;59039;52.108;19.942;2023-11-18T07:13:28;16.50;;;9.20;;
60919;SDS011;59039;52.108;19.942;2023-11-18T07:15:53;15.60;;;9.40;;
60919;SDS011;59039;52.108;19.942;2023-11-18T07:18:18;17.70;;;8.60;;
60919;SDS011;59039;52.108;19.942;2023-11-18T07:20:44;15.70;;;9.10;;
60919;SDS011;59039;52.108;19.942;2023-11-18T07:23:09;21.40;;;12.00;;
60919;SDS011;59039;52.108;19.942;2023-11-18T07:25:34;22.40;;;11.70;;
60919;SDS011;59039;52.108;19.942;2023-11-18T07:28:00;22.90;;;12.60;;
60919;SDS011;59039;52.108;19.942;2023-11-18T07:30:25;20.90;;;10.70;;
60919;SDS011;59039;52.108;19.942;2023-11-18T07:32:50;19.00;;;10.40;;
60919;SDS011;59039;52.108;19.942;2023-11-18T07:35:16;17.50;;;11.20;;
60919;SDS011;59039;52.108;19.942;2023-11-18T07:37:41;17.30;;;9.50;;
60919;SDS011;59039;52.108;19.942;2023-11-18T07:40:06;19.90;;;11.60;;
60919;SDS011;59039;52.108;19.942;2023-11-18T07:42:32;18.70;;;10.10;;
60919;SDS011;59039;52.108;19.942;2023-11-18T07:44:57;19.40;;;11.50;;
60919;SDS011;59039;52.108;19.942;2023-11-18T07:47:22;21.60;;;11.50;;
60919;SDS011;59039;52.108;19.942;2023-11-18T07:49:47;22.60;;;12.20;;
60919;SDS011;59039;52.108;19.942;2023-11-18T07:52:13;25.20;;;13.20;;
60919;SDS011;59039;52.108;19.942;2023-11-18T07:54:38;28.60;;;14.10;;
60919;SDS011;59039;52.108;19.942;2023-11-18T07:57:03;21.60;;;11.80;;
60919;SDS011;59039;52.108;19.942;2023-11-18T07:59:29;20.90;;;13.00;;
60919;SDS011;59039;52.108;19.942;2023-11-18T08:01:54;19.30;;;11.00;;
60919;SDS011;59039;52.108;19.942;2023-11-18T08:04:19;23.00;;;12.60;;
60919;SDS011;59039;52.108;19.942;2023-11-18T08:06:44;24.60;;;13.00;;
60919;SDS011;59039;52.108;19.942;2023-11-18T08:09:10;22.00;;;12.20;;
60919;SDS011;59039;52.108;19.942;2023-11-18T08:11:35;21.40;;;12.00;;
60919;SDS011;59039;52.108;19.942;2023-11-18T08:14:00;20.30;;;11.20;;
60919;SDS011;59039;52.108;19.942;2023-11-18T08:16:25;19.00;;;10.80;;
60919;SDS011;59039;52.108;19.942;2023-11-18T08:18:50;16.20;;;9.80;;
60919;SDS011;59039;52.108;19.942;2023-11-18T08:21:16;16.10;;;9.80;;
60919;SDS011;59039;52.108;19.942;2023-11-18T08:23:41;16.70;;;8.90;;
60919;SDS011;59039;52.108;19.942;2023-11-18T08:26:06;20.60;;;11.60;;
60919;SDS011;59039;52.108;19.942;2023-11-18T08:28:31;22.60;;;12.90;;
60919;SDS011;59039;52.108;19.942;2023-11-18T08:30:56;19.40;;;13.10;;
60919;SDS011;59039;52.108;19.942;2023-11-18T08:33:22;21.60;;;12.40;;
60919;SDS011;59039;52.108;19.942;2023-11-18T08:35:48;18.00;;;9.80;;
60919;SDS011;59039;52.108;19.942;2023-11-18T08:38:13;19.80;;;9.70;;
60919;SDS011;59039;52.108;19.942;2023-11-18T08:40:39;20.40;;;10.80;;
60919;SDS011;59039;52.108;19.942;2023-11-18T08:43:05;17.70;;;10.20;;
60919;SDS011;59039;52.108;19.942;2023-11-18T08:45:30;21.80;;;10.90;;
60919;SDS011;59039;52.108;19.942;2023-11-18T08:47:56;17.90;;;10.60;;
60919;SDS011;59039;52.108;19.942;2023-11-18T08:50:21;18.30;;;9.20;;
60919;SDS011;59039;52.108;19.942;2023-11-18T08:52:47;20.00;;;10.30;;
60919;SDS011;59039;52.108;19.942;2023-11-18T08:55:13;20.90;;;9.70;;
60919;SDS011;59039;52.108;19.942;2023-11-18T08:57:39;18.00;;;9.40;;
60919;SDS011;59039;52.108;19.942;2023-11-18T09:00:04;19.80;;;9.90;;
60919;SDS011;59039;52.108;19.942;2023-11-18T09:02:30;16.80;;;8.60;;
60919;SDS011;59039;52.108;19.942;2023-11-18T09:04:55;18.50;;;9.90;;
60919;SDS011;59039;52.108;19.942;2023-11-18T09:07:20;19.40;;;10.20;;
60919;SDS011;59039;52.108;19.942;2023-11-18T09:09:46;24.00;;;11.20;;
60919;SDS011;59039;52.108;19.942;2023-11-18T09:12:11;19.40;;;12.50;;
60919;SDS011;59039;52.108;19.942;2023-11-18T09:14:37;24.60;;;12.30;;
60919;SDS011;59039;52.108;19.942;2023-11-18T09:17:02;20.30;;;11.70;;
60919;SDS011;59039;52.108;19.942;2023-11-18T09:19:27;22.30;;;11.90;;
60919;SDS011;59039;52.108;19.942;2023-11-18T09:21:52;22.10;;;12.70;;
60919;SDS011;59039;52.108;19.942;2023-11-18T09:24:18;18.50;;;10.50;;
60919;SDS011;59039;52.108;19.942;2023-11-18T09:26:43;20.50;;;12.60;;
60919;SDS011;59039;52.108;19.942;2023-11-18T09:29:08;21.90;;;12.60;;
60919;SDS011;59039;52.108;19.942;2023-11-18T09:31:36;19.30;;;10.10;;
60919;SDS011;59039;52.108;19.942;2023-11-18T09:34:02;20.50;;;10.10;;
60919;SDS011;59039;52.108;19.942;2023-11-18T09:36:27;22.70;;;11.00;;
60919;SDS011;59039;52.108;19.942;2023-11-18T09:38:52;26.30;;;12.90;;
60919;SDS011;59039;52.108;19.942;2023-11-18T09:41:17;24.60;;;11.60;;
60919;SDS011;59039;52.108;19.942;2023-11-18T09:43:43;20.30;;;10.40;;
60919;SDS011;59039;52.108;19.942;2023-11-18T09:46:09;23.50;;;10.30;;
60919;SDS011;59039;52.108;19.942;2023-11-18T09:48:35;25.20;;;11.70;;
60919;SDS011;59039;52.108;19.942;2023-11-18T09:51:01;20.70;;;10.80;;
60919;SDS011;59039;52.108;19.942;2023-11-18T09:53:27;17.90;;;9.70;;
60919;SDS011;59039;52.108;19.942;2023-11-18T09:56:02;19.30;;;10.00;;
60919;SDS011;59039;52.108;19.942;2023-11-18T09:58:36;19.20;;;10.30;;
60919;SDS011;59039;52.108;19.942;2023-11-18T10:01:05;20.70;;;11.20;;
60919;SDS011;59039;52.108;19.942;2023-11-18T10:03:31;24.90;;;13.50;;
60919;SDS011;59039;52.108;19.942;2023-11-18T10:05:56;24.70;;;12.00;;
60919;SDS011;59039;52.108;19.942;2023-11-18T10:08:23;17.10;;;9.80;;
60919;SDS011;59039;52.108;19.942;2023-11-18T10:10:48;22.20;;;11.50;;
60919;SDS011;59039;52.108;19.942;2023-11-18T10:13:13;19.40;;;10.20;;
60919;SDS011;59039;52.108;19.942;2023-11-18T10:15:38;19.10;;;10.00;;
60919;SDS011;59039;52.108;19.942;2023-11-18T10:18:03;19.10;;;10.80;;
60919;SDS011;59039;52.108;19.942;2023-11-18T10:20:42;25.40;;;12.20;;
60919;SDS011;59039;52.108;19.942;2023-11-18T10:23:09;20.20;;;10.00;;
60919;SDS011;59039;52.108;19.942;2023-11-18T10:25:34;22.00;;;10.70;;
60919;SDS011;59039;52.108;19.942;2023-11-18T10:28:00;23.10;;;11.20;;
60919;SDS011;59039;52.108;19.942;2023-11-18T10:30:26;19.20;;;10.20;;
60919;SDS011;59039;52.108;19.942;2023-11-18T10:32:58;16.20;;;9.30;;
60919;SDS011;59039;52.108;19.942;2023-11-18T10:35:26;20.60;;;10.30;;
60919;SDS011;59039;52.108;19.942;2023-11-18T10:37:51;18.90;;;10.70;;
60919;SDS011;59039;52.108;19.942;2023-11-18T10:40:17;19.00;;;10.40;;
60919;SDS011;59039;52.108;19.942;2023-11-18T10:42:42;19.90;;;10.00;;
60919;SDS011;59039;52.108;19.942;2023-11-18T10:45:07;21.40;;;11.50;;
60919;SDS011;59039;52.108;19.942;2023-11-18T10:47:33;17.80;;;10.40;;
60919;SDS011;59039;52.108;19.942;2023-11-18T10:49:59;23.00;;;10.60;;
60919;SDS011;59039;52.108;19.942;2023-11-18T10:52:24;20.00;;;11.20;;
60919;SDS011;59039;52.108;19.942;2023-11-18T10:54:50;22.70;;;11.70;;
60919;SDS011;59039;52.108;19.942;2023-11-18T10:57:16;18.80;;;10.90;;
60919;SDS011;59039;52.108;19.942;2023-11-18T11:02:30;21.20;;;11.40;;
60919;SDS011;59039;52.108;19.942;2023-11-18T11:04:56;22.30;;;12.50;;
60919;SDS011;59039;52.108;19.942;2023-11-18T11:07:21;22.80;;;11.40;;
60919;SDS011;59039;52.108;19.942;2023-11-18T11:09:48;19.90;;;11.00;;
60919;SDS011;59039;52.108;19.942;2023-11-18T11:12:13;19.20;;;10.20;;
60919;SDS011;59039;52.108;19.942;2023-11-18T11:14:43;26.40;;;12.00;;
60919;SDS011;59039;52.108;19.942;2023-11-18T11:17:19;19.90;;;10.80;;
60919;SDS011;59039;52.108;19.942;2023-11-18T11:19:50;26.70;;;13.10;;
60919;SDS011;59039;52.108;19.942;2023-11-18T11:22:21;27.90;;;13.20;;
60919;SDS011;59039;52.108;19.942;2023-11-18T11:27:36;20.80;;;12.10;;
60919;SDS011;59039;52.108;19.942;2023-11-18T11:30:10;21.50;;;12.30;;
60919;SDS011;59039;52.108;19.942;2023-11-18T11:32:45;23.30;;;13.50;;
60919;SDS011;59039;52.108;19.942;2023-11-18T11:35:25;23.70;;;13.40;;
60919;SDS011;59039;52.108;19.942;2023-11-18T11:37:56;26.10;;;12.50;;
60919;SDS011;59039;52.108;19.942;2023-11-18T11:40:21;26.10;;;13.10;;
60919;SDS011;59039;52.108;19.942;2023-11-18T11:42:48;22.80;;;11.30;;
60919;SDS011;59039;52.108;19.942;2023-11-18T11:45:15;24.10;;;13.50;;
60919;SDS011;59039;52.108;19.942;2023-11-18T11:47:40;20.40;;;12.40;;
60919;SDS011;59039;52.108;19.942;2023-11-18T11:50:07;29.20;;;14.40;;
60919;SDS011;59039;52.108;19.942;2023-11-18T11:52:46;27.70;;;12.00;;
60919;SDS011;59039;52.108;19.942;2023-11-18T11:55:38;26.20;;;14.90;;
60919;SDS011;59039;52.108;19.942;2023-11-18T11:58:26;22.30;;;12.20;;
60919;SDS011;59039;52.108;19.942;2023-11-18T12:00:55;26.60;;;12.80;;
60919;SDS011;59039;52.108;19.942;2023-11-18T12:03:23;24.10;;;13.00;;
60919;SDS011;59039;52.108;19.942;2023-11-18T12:05:49;27.00;;;13.10;;
60919;SDS011;59039;52.108;19.942;2023-11-18T12:08:15;24.60;;;12.60;;
60919;SDS011;59039;52.108;19.942;2023-11-18T12:10:47;26.00;;;13.00;;
60919;SDS011;59039;52.108;19.942;2023-11-18T12:13:16;27.70;;;14.10;;
60919;SDS011;59039;52.108;19.942;2023-11-18T12:15:48;28.40;;;15.70;;
60919;SDS011;59039;52.108;19.942;2023-11-18T12:20:43;25.40;;;13.20;;
60919;SDS011;59039;52.108;19.942;2023-11-18T12:23:09;25.20;;;13.70;;
60919;SDS011;59039;52.108;19.942;2023-11-18T12:25:35;23.70;;;11.80;;
60919;SDS011;59039;52.108;19.942;2023-11-18T12:28:06;28.50;;;13.00;;
60919;SDS011;59039;52.108;19.942;2023-11-18T12:33:01;28.10;;;12.50;;
60919;SDS011;59039;52.108;19.942;2023-11-18T12:35:27;30.10;;;13.50;;
60919;SDS011;59039;52.108;19.942;2023-11-18T12:38:13;22.30;;;11.30;;
60919;SDS011;59039;52.108;19.942;2023-11-18T12:40:56;29.40;;;12.50;;
60919;SDS011;59039;52.108;19.942;2023-11-18T12:43:32;35.40;;;13.20;;
60919;SDS011;59039;52.108;19.942;2023-11-18T12:49:24;27.70;;;12.90;;
60919;SDS011;59039;52.108;19.942;2023-11-18T12:51:53;23.90;;;10.70;;
60919;SDS011;59039;52.108;19.942;2023-11-18T12:54:19;25.40;;;11.70;;
60919;SDS011;59039;52.108;19.942;2023-11-18T12:56:46;24.80;;;12.30;;
60919;SDS011;59039;52.108;19.942;2023-11-18T12:59:11;24.30;;;12.20;;
60919;SDS011;59039;52.108;19.942;2023-11-18T13:01:36;27.90;;;13.30;;
60919;SDS011;59039;52.108;19.942;2023-11-18T13:04:02;25.80;;;13.70;;
60919;SDS011;59039;52.108;19.942;2023-11-18T13:06:28;24.30;;;11.90;;
60919;SDS011;59039;52.108;19.942;2023-11-18T13:08:53;22.90;;;12.00;;
60919;SDS011;59039;52.108;19.942;2023-11-18T13:11:19;28.10;;;13.20;;
60919;SDS011;59039;52.108;19.942;2023-11-18T13:13:45;29.30;;;14.10;;
60919;SDS011;59039;52.108;19.942;2023-11-18T13:16:10;25.00;;;13.00;;
60919;SDS011;59039;52.108;19.942;2023-11-18T13:18:45;29.60;;;13.30;;
60919;SDS011;59039;52.108;19.942;2023-11-18T13:21:14;26.60;;;13.70;;
60919;SDS011;59039;52.108;19.942;2023-11-18T13:23:40;28.80;;;14.40;;
60919;SDS011;59039;52.108;19.942;2023-11-18T13:26:06;31.10;;;13.70;;
60919;SDS011;59039;52.108;19.942;2023-11-18T13:28:31;26.80;;;13.70;;
60919;SDS011;59039;52.108;19.942;2023-11-18T13:30:57;21.30;;;10.80;;
60919;SDS011;59039;52.108;19.942;2023-11-18T13:33:22;26.30;;;13.50;;
60919;SDS011;59039;52.108;19.942;2023-11-18T13:35:48;24.80;;;11.80;;
60919;SDS011;59039;52.108;19.942;2023-11-18T13:38:14;27.20;;;12.90;;
60919;SDS011;59039;52.108;19.942;2023-11-18T13:40:45;27.50;;;15.10;;
60919;SDS011;59039;52.108;19.942;2023-11-18T13:43:11;37.70;;;16.30;;
60919;SDS011;59039;52.108;19.942;2023-11-18T13:45:36;35.10;;;16.00;;
60919;SDS011;59039;52.108;19.942;2023-11-18T13:48:01;30.40;;;14.20;;
60919;SDS011;59039;52.108;19.942;2023-11-18T13:50:27;29.40;;;14.20;;
60919;SDS011;59039;52.108;19.942;2023-11-18T13:52:52;28.50;;;12.50;;
60919;SDS011;59039;52.108;19.942;2023-11-18T13:55:18;27.50;;;12.30;;
60919;SDS011;59039;52.108;19.942;2023-11-18T13:57:43;27.50;;;14.00;;
60919;SDS011;59039;52.108;19.942;2023-11-18T14:00:09;30.60;;;14.20;;
60919;SDS011;59039;52.108;19.942;2023-11-18T14:02:35;29.30;;;14.50;;
60919;SDS011;59039;52.108;19.942;2023-11-18T14:05:00;25.10;;;13.50;;
60919;SDS011;59039;52.108;19.942;2023-11-18T14:07:26;29.10;;;14.70;;
60919;SDS011;59039;52.108;19.942;2023-11-18T14:09:51;32.70;;;14.30;;
60919;SDS011;59039;52.108;19.942;2023-11-18T14:12:16;26.60;;;13.20;;
60919;SDS011;59039;52.108;19.942;2023-11-18T14:14:41;30.60;;;14.80;;
60919;SDS011;59039;52.108;19.942;2023-11-18T14:17:07;28.80;;;14.10;;
60919;SDS011;59039;52.108;19.942;2023-11-18T14:19:32;26.60;;;13.30;;
60919;SDS011;59039;52.108;19.942;2023-11-18T14:21:58;29.30;;;14.50;;